Time;durP1;ratioP1;P1;durP2;ratioP2;P2;SDS_P1;SDS_P2;PMS_P1;PMS_P2;Temp;Humidity;BMP_temperature;BMP_pressure;BME280_temperature;BME280_humidity;BME280_pressure;Samples;Min_cycle;Max_cycle;Signal;HPM_P1;HPM_P2
2022/11/21 00:01:52;;;;;;;1.90;1.20;;;8.00;54.20;;;;;;5004260;28;20184;-73
2022/11/21 00:04:18;;;;;;;1.80;1.10;;;8.10;53.90;;;;;;5010609;28;20192;-70
2022/11/21 00:06:44;;;;;;;1.80;1.10;;;8.60;52.80;;;;;;5010571;28;20275;-72
2022/11/21 00:09:09;;;;;;;1.90;1.20;;;8.60;51.00;;;;;;5009641;28;20239;-72
2022/11/21 00:11:35;;;;;;;1.70;1.00;;;8.70;52.90;;;;;;5011915;28;20188;-72
2022/11/21 00:14:00;;;;;;;1.90;1.20;;;8.70;51.70;;;;;;5005169;28;20399;-71
2022/11/21 00:16:26;;;;;;;1.80;1.10;;;8.90;48.70;;;;;;5009528;28;20209;-72
2022/11/21 00:18:52;;;;;;;1.70;1.00;;;9.20;48.80;;;;;;5010966;28;20201;-72
2022/11/21 00:21:19;;;;;;;1.80;1.10;;;9.10;48.70;;;;;;5007775;28;20189;-72
2022/11/21 00:23:46;;;;;;;1.90;1.20;;;9.40;47.10;;;;;;5006380;28;20196;-72
2022/11/21 00:26:13;;;;;;;1.80;1.00;;;9.50;46.50;;;;;;5008733;28;20189;-72
2022/11/21 00:28:39;;;;;;;1.80;1.10;;;9.30;47.60;;;;;;5007040;28;20578;-72
2022/11/21 00:31:05;;;;;;;1.70;1.10;;;9.80;47.70;;;;;;5002521;28;20197;-72
2022/11/21 00:33:33;;;;;;;1.70;1.00;;;9.60;47.30;;;;;;5002624;28;20936;-72
2022/11/21 00:36:05;;;;;;;1.80;1.10;;;9.60;46.80;;;;;;5010310;28;20217;-72
2022/11/21 00:38:31;;;;;;;1.70;1.10;;;9.60;46.70;;;;;;5011001;28;20209;-71
2022/11/21 00:40:57;;;;;;;1.70;1.00;;;9.10;48.20;;;;;;5011886;28;20180;-73
2022/11/21 00:43:22;;;;;;;1.80;1.10;;;9.30;46.90;;;;;;5011699;28;20196;-72
2022/11/21 00:45:48;;;;;;;1.70;1.00;;;9.00;47.30;;;;;;5011136;28;20181;-72
2022/11/21 00:48:13;;;;;;;1.70;1.00;;;9.10;48.20;;;;;;5002655;28;20657;-72
2022/11/21 00:50:39;;;;;;;1.80;1.10;;;8.50;49.50;;;;;;5011671;28;20177;-72
2022/11/21 00:53:04;;;;;;;1.80;1.10;;;9.20;48.40;;;;;;5011594;28;20180;-72
2022/11/21 00:55:30;;;;;;;1.70;1.10;;;9.00;48.70;;;;;;5009878;28;20189;-72
2022/11/21 00:57:56;;;;;;;1.80;1.10;;;8.80;48.50;;;;;;5010889;28;20267;-72
2022/11/21 01:00:21;;;;;;;1.70;1.00;;;8.60;48.40;;;;;;5002634;28;20672;-72
2022/11/21 01:02:47;;;;;;;3.27;2.03;;;8.90;48.60;;;;;;5011293;28;20173;-72
2022/11/21 01:05:13;;;;;;;1.73;1.10;;;8.70;47.30;;;;;;5010087;28;20223;-71
2022/11/21 01:07:38;;;;;;;1.80;1.20;;;8.40;49.20;;;;;;5017134;28;20189;-70
2022/11/21 01:10:05;;;;;;;1.70;1.10;;;8.50;48.30;;;;;;5021693;28;20204;-71
2022/11/21 01:12:30;;;;;;;1.70;1.00;;;8.50;48.30;;;;;;5011533;28;20588;-72
2022/11/21 01:14:56;;;;;;;1.80;1.10;;;8.70;47.70;;;;;;5010110;28;20280;-72
2022/11/21 01:17:22;;;;;;;1.90;1.10;;;8.30;48.90;;;;;;5010258;28;20467;-72
2022/11/21 01:19:47;;;;;;;1.90;1.10;;;8.30;48.10;;;;;;5012836;28;20194;-72
2022/11/21 01:22:13;;;;;;;1.80;1.20;;;8.50;47.80;;;;;;5011397;28;20173;-71
2022/11/21 01:24:38;;;;;;;1.80;1.10;;;8.80;47.60;;;;;;5011001;28;20189;-72
2022/11/21 01:27:04;;;;;;;1.80;1.10;;;8.60;46.90;;;;;;5003441;28;20215;-72
2022/11/21 01:29:29;;;;;;;1.80;1.10;;;9.10;46.50;;;;;;5008643;28;20209;-72
2022/11/21 01:31:55;;;;;;;1.80;1.07;;;9.50;44.90;;;;;;5011239;28;20664;-72
2022/11/21 01:34:21;;;;;;;1.80;1.00;;;9.00;45.00;;;;;;5011317;28;20177;-72
2022/11/21 01:36:47;;;;;;;1.90;1.10;;;9.20;45.20;;;;;;5012042;28;20197;-72
2022/11/21 01:39:12;;;;;;;1.80;1.03;;;8.50;46.40;;;;;;5013932;28;20212;-72
2022/11/21 01:41:41;;;;;;;1.80;1.10;;;8.30;49.10;;;;;;5015091;28;20264;-72
2022/11/21 01:44:16;;;;;;;1.90;1.10;;;7.90;52.60;;;;;;5014881;28;20171;-72
2022/11/21 01:46:42;;;;;;;1.90;1.10;;;7.60;53.30;;;;;;5014807;28;20172;-72
2022/11/21 01:49:16;;;;;;;1.80;1.00;;;8.00;53.50;;;;;;5014692;28;20727;-72
2022/11/21 01:52:05;;;;;;;1.88;1.10;;;8.30;50.10;;;;;;5013673;28;20228;-72
2022/11/21 01:54:51;;;;;;;1.90;1.20;;;8.60;48.90;;;;;;5014786;28;20185;-71
2022/11/21 01:57:27;;;;;;;1.80;1.00;;;8.60;50.30;;;;;;5014488;28;20874;-72
2022/11/21 02:00:09;;;;;;;1.90;1.10;;;9.20;48.90;;;;;;5013826;28;20216;-72
2022/11/21 02:02:38;;;;;;;1.90;1.10;;;9.10;48.80;;;;;;5013724;28;20249;-72
2022/11/21 02:05:07;;;;;;;1.80;1.00;;;9.10;49.50;;;;;;5014603;28;20260;-72
2022/11/21 02:07:38;;;;;;;1.80;1.10;;;9.20;47.40;;;;;;5014664;28;20668;-72
2022/11/21 02:10:04;;;;;;;1.77;1.00;;;9.00;48.70;;;;;;5014019;28;20267;-71
2022/11/21 02:12:51;;;;;;;1.80;1.00;;;9.50;47.80;;;;;;5014023;28;20644;-72
2022/11/21 02:15:20;;;;;;;1.80;1.10;;;10.00;44.80;;;;;;5014587;28;20312;-72
2022/11/21 02:17:45;;;;;;;1.80;1.10;;;9.70;46.50;;;;;;5014555;28;20209;-72
2022/11/21 02:20:16;;;;;;;1.80;1.10;;;9.70;47.30;;;;;;5014788;28;20310;-72
2022/11/21 02:23:00;;;;;;;1.83;1.10;;;9.20;48.90;;;;;;5009336;28;20229;-72
2022/11/21 02:25:28;;;;;;;1.80;1.00;;;8.20;53.30;;;;;;5005979;28;20731;-71
2022/11/21 02:27:58;;;;;;;1.70;1.00;;;8.50;55.90;;;;;;5014278;28;20189;-73
2022/11/21 02:30:26;;;;;;;1.80;1.02;;;8.30;54.00;;;;;;5005764;28;20178;-71
2022/11/21 02:32:52;;;;;;;1.77;1.00;;;8.10;54.70;;;;;;5010240;28;20265;-71
2022/11/21 02:35:18;;;;;;;1.70;1.00;;;8.30;55.90;;;;;;5014055;28;20245;-71
2022/11/21 02:37:47;;;;;;;1.70;1.00;;;8.30;54.00;;;;;;5014663;28;20462;-74
2022/11/21 02:40:21;;;;;;;1.77;1.00;;;8.20;56.40;;;;;;5011914;28;20215;-72
2022/11/21 02:43:05;;;;;;;1.70;1.00;;;8.50;54.40;;;;;;5005341;28;20180;-72
2022/11/21 02:45:41;;;;;;;1.90;1.17;;;9.10;51.50;;;;;;5013984;28;20172;-72
2022/11/21 02:48:07;;;;;;;1.80;1.10;;;9.40;49.60;;;;;;5013207;28;20177;-72
2022/11/21 02:50:35;;;;;;;1.90;1.10;;;9.60;48.90;;;;;;5013470;28;20675;-72
2022/11/21 02:53:02;;;;;;;1.88;1.15;;;9.20;48.90;;;;;;5013087;28;20194;-72
2022/11/21 02:55:28;;;;;;;1.80;1.00;;;9.20;50.20;;;;;;5001294;28;20221;-72
2022/11/21 02:57:54;;;;;;;1.80;1.10;;;9.20;49.20;;;;;;5009067;28;20189;-72
2022/11/21 03:00:20;;;;;;;1.70;1.00;;;9.10;48.70;;;;;;5010979;28;20193;-72
2022/11/21 03:02:45;;;;;;;15.07;2.58;;;8.70;51.80;;;;;;5013010;28;20850;-72
2022/11/21 03:05:14;;;;;;;1.80;1.07;;;8.90;51.70;;;;;;5013545;28;20174;-72
2022/11/21 03:07:40;;;;;;;1.80;1.10;;;9.00;53.00;;;;;;5013787;28;20637;-73
2022/11/21 03:10:06;;;;;;;1.90;1.13;;;8.30;53.70;;;;;;5012374;28;20239;-72
2022/11/21 03:12:34;;;;;;;1.87;1.13;;;8.30;53.20;;;;;;5013058;28;20268;-72
2022/11/21 03:14:59;;;;;;;1.75;1.00;;;8.20;54.40;;;;;;5013338;28;20416;-72
2022/11/21 03:17:25;;;;;;;1.77;1.00;;;7.90;55.20;;;;;;5012015;28;20267;-70
2022/11/21 03:19:50;;;;;;;1.80;1.10;;;8.10;54.90;;;;;;5013276;28;20680;-72
2022/11/21 03:22:16;;;;;;;1.70;1.00;;;8.20;54.00;;;;;;5012149;28;20189;-72
2022/11/21 03:24:42;;;;;;;1.80;1.00;;;7.70;57.40;;;;;;5012499;28;20177;-72
2022/11/21 03:27:07;;;;;;;1.80;1.10;;;7.60;59.70;;;;;;5013261;28;20623;-71
2022/11/21 03:29:33;;;;;;;1.70;1.03;;;8.10;56.90;;;;;;5013086;28;20284;-72
2022/11/21 03:31:59;;;;;;;1.77;1.10;;;8.00;55.80;;;;;;5010358;28;20194;-72
2022/11/21 03:34:25;;;;;;;1.80;1.10;;;8.30;54.80;;;;;;5012217;28;20216;-72
2022/11/21 03:36:50;;;;;;;1.90;1.10;;;7.70;57.20;;;;;;5012966;28;20197;-72
2022/11/21 03:39:16;;;;;;;1.80;1.00;;;7.70;56.90;;;;;;5012731;28;20217;-72
2022/11/21 03:41:41;;;;;;;1.80;1.10;;;8.20;53.00;;;;;;5007970;28;20181;-71
2022/11/21 03:44:09;;;;;;;1.80;1.10;;;8.40;52.10;;;;;;5008824;28;20177;-72
2022/11/21 03:46:38;;;;;;;1.80;1.10;;;8.40;51.60;;;;;;5012828;28;20243;-72
2022/11/21 03:49:04;;;;;;;1.80;1.10;;;8.50;51.30;;;;;;5012762;28;20660;-72
2022/11/21 03:51:30;;;;;;;1.77;1.00;;;8.40;52.50;;;;;;5012698;28;20548;-72
2022/11/21 03:53:56;;;;;;;1.80;1.10;;;8.10;51.80;;;;;;5010217;28;20256;-72
2022/11/21 03:56:22;;;;;;;2.30;1.30;;;8.40;51.40;;;;;;5012718;28;20197;-72
2022/11/21 03:58:48;;;;;;;1.80;1.10;;;8.60;49.70;;;;;;5012538;28;20284;-72
2022/11/21 04:01:14;;;;;;;1.80;1.10;;;9.00;48.70;;;;;;5012306;28;20252;-72
2022/11/21 04:03:44;;;;;;;1.77;1.10;;;8.70;48.40;;;;;;5010220;28;20467;-72
2022/11/21 04:06:12;;;;;;;1.80;1.10;;;8.60;48.60;;;;;;5012189;28;20591;-72
2022/11/21 04:08:38;;;;;;;1.80;1.00;;;8.40;52.90;;;;;;5012040;28;20201;-72
2022/11/21 04:11:04;;;;;;;1.80;1.10;;;8.70;48.60;;;;;;5004417;28;20550;-72
2022/11/21 04:13:30;;;;;;;1.90;1.20;;;8.90;49.50;;;;;;5011997;28;20640;-72
2022/11/21 04:15:55;;;;;;;1.70;1.00;;;8.80;48.60;;;;;;5010998;28;20256;-72
2022/11/21 04:18:21;;;;;;;1.80;1.10;;;8.60;49.00;;;;;;5012045;28;20204;-72
2022/11/21 04:20:47;;;;;;;1.80;1.10;;;8.30;50.60;;;;;;5012162;28;20204;-71
2022/11/21 04:23:13;;;;;;;1.90;1.10;;;8.50;50.00;;;;;;5011994;28;20205;-72
2022/11/21 04:25:39;;;;;;;1.77;1.00;;;8.30;50.80;;;;;;5011579;28;20215;-72
2022/11/21 04:28:06;;;;;;;1.80;1.10;;;8.40;51.90;;;;;;5011905;28;20185;-72
2022/11/21 04:30:33;;;;;;;1.80;1.10;;;7.90;52.10;;;;;;5011837;28;20274;-72
2022/11/21 04:32:58;;;;;;;1.80;1.10;;;7.90;51.30;;;;;;5003551;28;20211;-72
2022/11/21 04:35:25;;;;;;;1.80;1.10;;;7.80;51.70;;;;;;5010527;28;20201;-72
2022/11/21 04:37:51;;;;;;;1.80;1.10;;;8.10;50.30;;;;;;5011889;28;20472;-72
2022/11/21 04:40:16;;;;;;;1.80;1.10;;;8.40;48.90;;;;;;5011758;28;20224;-72
2022/11/21 04:42:43;;;;;;;1.90;1.10;;;8.80;47.50;;;;;;5006051;28;20605;-72
2022/11/21 04:45:10;;;;;;;1.80;1.10;;;9.00;47.10;;;;;;5009230;28;20260;-71
2022/11/21 04:47:40;;;;;;;1.80;1.10;;;9.00;46.30;;;;;;5010292;28;20185;-72
2022/11/21 04:50:07;;;;;;;1.80;1.10;;;9.20;45.80;;;;;;5003153;28;20213;-72
2022/11/21 04:52:34;;;;;;;1.80;1.10;;;8.90;46.30;;;;;;5011622;28;20189;-72
2022/11/21 04:54:59;;;;;;;1.73;1.00;;;8.90;46.10;;;;;;5011846;28;20748;-71
2022/11/21 04:57:27;;;;;;;1.80;1.10;;;9.00;46.80;;;;;;5010219;28;20300;-72
2022/11/21 04:59:53;;;;;;;1.80;1.10;;;8.90;45.50;;;;;;5011432;28;20196;-72
2022/11/21 05:02:18;;;;;;;1.80;1.10;;;9.20;44.50;;;;;;5009127;28;20180;-72
2022/11/21 05:04:44;;;;;;;1.77;1.00;;;9.30;44.60;;;;;;5006437;28;20173;-73
2022/11/21 05:07:10;;;;;;;1.80;1.10;;;8.80;47.40;;;;;;5013770;28;20204;-70
2022/11/21 05:09:35;;;;;;;1.80;1.00;;;8.90;47.20;;;;;;5011856;28;20308;-74
2022/11/21 05:14:45;;;;;;;1.70;1.00;;;9.10;45.70;;;;;;5010680;28;20191;-72
2022/11/21 05:17:11;;;;;;;1.80;1.10;;;9.20;44.40;;;;;;5013428;28;20289;-72
2022/11/21 05:19:36;;;;;;;1.70;1.00;;;9.20;45.10;;;;;;5008996;28;20197;-71
2022/11/21 05:22:02;;;;;;;1.80;1.10;;;9.30;46.20;;;;;;5011727;28;20178;-72
2022/11/21 05:24:27;;;;;;;1.80;1.10;;;9.50;44.90;;;;;;5012756;28;20232;-73
2022/11/21 05:26:53;;;;;;;1.90;1.10;;;9.20;45.40;;;;;;5011929;28;20181;-72
2022/11/21 05:29:20;;;;;;;1.77;1.10;;;9.50;45.20;;;;;;5016879;28;20205;-71
2022/11/21 05:31:46;;;;;;;1.80;1.10;;;9.40;45.30;;;;;;5018803;28;20831;-72
2022/11/21 05:34:11;;;;;;;1.70;1.00;;;9.50;45.80;;;;;;5015695;28;20181;-71
2022/11/21 05:36:37;;;;;;;1.80;1.13;;;9.50;43.30;;;;;;5008705;28;20572;-71
2022/11/21 05:39:03;;;;;;;1.73;1.10;;;9.60;44.60;;;;;;5014516;28;20267;-69
2022/11/21 05:41:28;;;;;;;1.80;1.13;;;9.20;44.40;;;;;;5013439;28;20742;-71
2022/11/21 05:43:54;;;;;;;1.77;1.00;;;9.20;46.00;;;;;;5014761;28;20189;-72
2022/11/21 05:46:22;;;;;;;1.80;1.10;;;8.70;45.00;;;;;;5015299;28;20420;-72
2022/11/21 05:48:49;;;;;;;1.77;1.00;;;8.60;46.10;;;;;;5015401;28;20197;-72
2022/11/21 05:51:16;;;;;;;1.75;1.00;;;8.40;49.00;;;;;;5013614;28;20628;-71
2022/11/21 05:53:41;;;;;;;1.80;1.00;;;8.80;46.50;;;;;;5009469;28;20299;-71
2022/11/21 05:56:12;;;;;;;1.80;1.10;;;8.60;46.50;;;;;;5010918;28;20208;-72
2022/11/21 05:58:38;;;;;;;1.70;1.00;;;8.80;45.40;;;;;;5012756;28;20351;-72
2022/11/21 06:01:06;;;;;;;1.80;1.10;;;9.30;46.50;;;;;;5014085;28;20193;-72
2022/11/21 06:03:34;;;;;;;1.70;1.00;;;9.20;45.00;;;;;;5015152;28;20197;-72
2022/11/21 06:06:04;;;;;;;1.80;1.00;;;9.20;43.60;;;;;;5014934;28;20312;-71
2022/11/21 06:08:32;;;;;;;1.80;1.10;;;8.90;44.60;;;;;;5010243;28;20197;-70
2022/11/21 06:10:58;;;;;;;1.80;1.00;;;9.20;43.80;;;;;;5011127;28;20300;-72
2022/11/21 06:13:23;;;;;;;1.90;1.20;;;9.40;43.60;;;;;;5004888;28;20260;-72
2022/11/21 06:16:00;;;;;;;1.70;1.00;;;8.60;45.20;;;;;;5007439;28;20187;-72
2022/11/21 06:18:27;;;;;;;1.80;1.10;;;8.60;46.90;;;;;;5010128;28;20204;-71
2022/11/21 06:20:53;;;;;;;1.80;1.10;;;8.90;45.40;;;;;;5011908;28;20188;-72
2022/11/21 06:23:19;;;;;;;1.80;1.10;;;8.90;44.10;;;;;;5006521;28;20173;-72
2022/11/21 06:25:44;;;;;;;1.80;1.10;;;8.90;45.20;;;;;;5009219;28;20534;-72
2022/11/21 06:28:11;;;;;;;1.80;1.10;;;9.40;43.50;;;;;;5005658;28;20261;-71
2022/11/21 06:30:37;;;;;;;1.85;1.20;;;9.20;43.10;;;;;;5012009;28;20185;-72
2022/11/21 06:33:04;;;;;;;1.80;1.10;;;9.00;43.80;;;;;;5004182;28;20272;-72
2022/11/21 06:35:30;;;;;;;1.70;1.00;;;9.30;44.00;;;;;;5009385;28;20211;-72
2022/11/21 06:37:57;;;;;;;1.80;1.10;;;9.30;43.00;;;;;;5011324;28;20854;-73
2022/11/21 06:40:23;;;;;;;1.80;1.10;;;9.70;43.20;;;;;;5010033;28;20440;-72
2022/11/21 06:42:48;;;;;;;1.70;1.10;;;9.50;42.30;;;;;;5010654;28;20194;-72
2022/11/21 06:45:14;;;;;;;1.80;1.10;;;9.50;43.00;;;;;;5006709;28;20204;-72
2022/11/21 06:47:40;;;;;;;1.70;1.00;;;9.10;43.40;;;;;;5008394;28;20247;-73
2022/11/21 06:50:06;;;;;;;1.70;1.03;;;9.10;44.20;;;;;;5007864;28;20216;-72
2022/11/21 06:52:32;;;;;;;1.80;1.10;;;9.00;44.60;;;;;;5012410;28;20665;-72
2022/11/21 06:54:58;;;;;;;1.80;1.10;;;8.90;45.60;;;;;;5012940;28;20243;-72
2022/11/21 06:57:24;;;;;;;1.77;1.07;;;8.60;47.50;;;;;;5010532;28;20261;-72
2022/11/21 06:59:49;;;;;;;1.80;1.00;;;8.70;47.10;;;;;;5001449;28;20199;-72
2022/11/21 07:02:15;;;;;;;1.70;1.10;;;9.30;45.80;;;;;;5009210;28;20221;-72
2022/11/21 07:04:41;;;;;;;1.80;1.10;;;9.60;44.20;;;;;;5013128;28;20189;-71
2022/11/21 07:07:06;;;;;;;1.80;1.10;;;9.30;45.40;;;;;;5014799;28;20186;-73
2022/11/21 07:09:34;;;;;;;1.80;1.10;;;9.10;45.90;;;;;;5002321;28;20205;-72
2022/11/21 07:13:20;;;;;;;1.90;1.20;;;9.60;46.60;;;;;;5004541;28;20189;-73
2022/11/21 07:14:46;;;;;;;1.80;1.00;;;9.80;43.70;;;;;;5009799;28;20189;-71
2022/11/21 07:17:13;;;;;;;1.77;1.10;;;9.20;45.30;;;;;;5004321;28;20288;-72
2022/11/21 07:19:39;;;;;;;1.83;1.20;;;9.20;45.90;;;;;;5004857;28;20232;-72
2022/11/21 07:22:06;;;;;;;1.80;1.10;;;9.30;45.70;;;;;;5003708;28;20293;-72
2022/11/21 07:24:31;;;;;;;1.80;1.10;;;9.40;45.20;;;;;;5009246;28;20487;-72
2022/11/21 07:26:57;;;;;;;1.80;1.10;;;9.80;44.50;;;;;;5013010;28;20181;-72
2022/11/21 07:29:22;;;;;;;1.80;1.07;;;10.10;43.00;;;;;;5010019;28;20241;-72
2022/11/21 07:31:48;;;;;;;2.10;1.40;;;9.80;45.00;;;;;;5007527;28;20187;-72
2022/11/21 07:34:14;;;;;;;1.90;1.20;;;9.80;43.70;;;;;;5008503;28;20227;-72
2022/11/21 07:36:39;;;;;;;1.70;1.00;;;9.30;45.70;;;;;;5006070;28;20204;-75
2022/11/21 07:39:05;;;;;;;1.80;1.10;;;9.10;46.60;;;;;;5012718;28;20227;-72
2022/11/21 07:41:31;;;;;;;1.80;1.10;;;8.80;48.50;;;;;;5006227;28;20595;-72
2022/11/21 07:43:57;;;;;;;1.80;1.10;;;8.60;51.80;;;;;;5007671;28;20889;-72
2022/11/21 07:46:22;;;;;;;2.27;1.40;;;9.30;48.00;;;;;;5011310;28;20555;-72
2022/11/21 07:48:49;;;;;;;1.80;1.10;;;9.50;45.80;;;;;;5012794;28;20218;-72
2022/11/21 07:51:14;;;;;;;1.80;1.10;;;9.90;45.00;;;;;;5002623;28;20207;-72
2022/11/21 07:53:40;;;;;;;1.80;1.00;;;10.10;43.00;;;;;;5005986;28;20633;-70
2022/11/21 07:56:08;;;;;;;2.00;1.30;;;9.70;44.50;;;;;;5007163;28;20189;-72
2022/11/21 07:58:34;;;;;;;1.80;1.10;;;9.90;43.10;;;;;;5008739;28;20196;-72
2022/11/21 08:01:06;;;;;;;1.80;1.10;;;9.60;44.50;;;;;;5006119;28;20212;-72
2022/11/21 08:03:33;;;;;;;1.83;1.10;;;9.40;45.00;;;;;;5004292;28;20269;-72
2022/11/21 08:06:03;;;;;;;2.00;1.30;;;9.50;45.70;;;;;;5008998;28;20221;-72
2022/11/21 08:08:29;;;;;;;1.80;1.20;;;10.10;43.10;;;;;;5006766;28;20270;-71
2022/11/21 08:10:55;;;;;;;1.80;1.00;;;10.30;41.70;;;;;;5008089;28;20191;-72
2022/11/21 08:13:21;;;;;;;1.90;1.10;;;10.20;41.80;;;;;;5006525;28;20522;-72
2022/11/21 08:15:46;;;;;;;1.87;1.20;;;9.90;43.50;;;;;;5002866;28;20262;-72
2022/11/21 08:18:17;;;;;;;1.80;1.10;;;10.00;41.60;;;;;;5007163;28;20213;-69
2022/11/21 08:20:43;;;;;;;1.83;1.10;;;9.80;43.60;;;;;;5007500;28;20186;-72
2022/11/21 08:23:09;;;;;;;1.80;1.10;;;9.70;43.70;;;;;;5007091;28;20270;-71
2022/11/21 08:25:39;;;;;;;2.15;1.30;;;9.50;43.80;;;;;;5007170;28;20183;-72
2022/11/21 08:28:06;;;;;;;1.80;1.10;;;9.40;43.80;;;;;;5008988;28;20776;-72
2022/11/21 08:30:32;;;;;;;1.80;1.00;;;9.40;44.30;;;;;;5010225;28;20279;-72
2022/11/21 08:32:58;;;;;;;2.75;1.30;;;9.50;43.40;;;;;;5009740;28;20198;-72
2022/11/21 08:35:27;;;;;;;1.80;1.00;;;9.40;44.50;;;;;;5006976;28;20211;-72
2022/11/21 08:37:57;;;;;;;1.83;1.10;;;9.60;43.50;;;;;;5008182;28;20299;-71
2022/11/21 08:40:24;;;;;;;1.90;1.15;;;10.00;41.50;;;;;;5007510;28;20218;-72
2022/11/21 08:43:07;;;;;;;1.90;1.10;;;10.60;41.20;;;;;;5006383;28;20199;-72
2022/11/21 08:45:34;;;;;;;2.00;1.20;;;10.10;42.80;;;;;;5006895;28;20177;-72
2022/11/21 08:48:00;;;;;;;1.90;1.10;;;9.20;45.60;;;;;;5006309;28;20191;-71
2022/11/21 08:50:26;;;;;;;1.98;1.10;;;9.20;45.50;;;;;;5011125;28;20566;-72
2022/11/21 08:52:52;;;;;;;2.00;1.00;;;9.60;46.30;;;;;;5010860;28;20192;-72
2022/11/21 08:55:18;;;;;;;1.90;1.10;;;10.40;41.70;;;;;;5002678;28;20186;-72
2022/11/21 08:57:43;;;;;;;2.07;1.17;;;11.10;40.00;;;;;;5011698;28;20249;-71
2022/11/21 09:00:13;;;;;;;2.50;1.57;;;10.90;40.90;;;;;;5004880;28;20571;-72
2022/11/21 09:02:39;;;;;;;1.92;1.08;;;10.40;40.40;;;;;;5010414;28;20234;-72
2022/11/21 09:05:05;;;;;;;2.13;1.20;;;9.80;42.70;;;;;;5011445;28;20263;-72
2022/11/21 09:07:30;;;;;;;2.07;1.17;;;9.80;43.30;;;;;;5010170;28;20192;-72
2022/11/21 09:09:56;;;;;;;2.40;1.50;;;10.00;40.90;;;;;;5009100;28;20464;-71
2022/11/21 09:12:21;;;;;;;2.00;1.10;;;9.60;41.90;;;;;;5008413;28;20218;-78
2022/11/21 09:20:15;;;;;;;2.10;1.10;;;9.80;42.00;;;;;;5011385;28;20208;-78
2022/11/21 09:22:41;;;;;;;2.00;1.10;;;9.70;42.40;;;;;;5005143;28;20182;-78
2022/11/21 09:25:07;;;;;;;2.20;1.20;;;9.60;42.10;;;;;;5027414;28;20184;-81
2022/11/21 09:27:32;;;;;;;2.20;1.10;;;9.20;43.20;;;;;;5011518;28;20267;-81
2022/11/21 09:29:58;;;;;;;2.07;1.10;;;9.40;42.60;;;;;;5012625;28;20476;-78
2022/11/21 09:32:24;;;;;;;2.10;1.10;;;10.00;42.10;;;;;;5002967;28;20185;-73
2022/11/21 09:34:49;;;;;;;2.00;1.10;;;10.00;40.70;;;;;;5005724;28;20789;-74
2022/11/21 09:37:15;;;;;;;2.00;1.10;;;9.80;42.70;;;;;;5010324;28;20200;-72
2022/11/21 09:39:41;;;;;;;2.00;1.10;;;9.80;42.60;;;;;;5011115;28;20208;-73
2022/11/21 09:42:25;;;;;;;2.10;1.20;;;10.20;41.10;;;;;;5004653;28;22144;-71
2022/11/21 09:45:02;;;;;;;2.00;1.10;;;10.90;40.80;;;;;;5004986;28;20762;-72
2022/11/21 09:47:35;;;;;;;1.92;1.00;;;10.50;40.20;;;;;;5003133;28;20221;-71
2022/11/21 09:50:05;;;;;;;1.90;1.00;;;10.70;40.30;;;;;;5003120;28;20210;-71
2022/11/21 09:52:37;;;;;;;1.90;1.10;;;11.10;40.00;;;;;;5005922;28;20628;-71
2022/11/21 09:55:12;;;;;;;2.08;1.10;;;10.70;39.20;;;;;;5007921;28;20187;-72
2022/11/21 09:57:38;;;;;;;2.10;1.10;;;10.60;38.70;;;;;;5000970;28;20302;-71
2022/11/21 10:00:18;;;;;;;2.00;1.10;;;10.90;37.50;;;;;;5010915;28;20288;-71
2022/11/21 10:02:44;;;;;;;2.00;1.10;;;11.00;37.30;;;;;;5012599;28;20183;-71
2022/11/21 10:05:13;;;;;;;2.10;1.10;;;10.20;38.50;;;;;;5015975;28;20572;-71
2022/11/21 10:07:40;;;;;;;2.00;1.00;;;9.90;40.00;;;;;;5014926;28;20189;-70
2022/11/21 10:10:48;;;;;;;2.10;1.10;;;9.80;41.70;;;;;;5024016;28;20279;-71
2022/11/21 10:13:34;;;;;;;2.30;1.20;;;9.90;40.90;;;;;;5003388;28;20623;-74
2022/11/21 10:16:16;;;;;;;2.10;1.10;;;9.90;40.30;;;;;;5013785;28;20188;-70
2022/11/21 10:19:06;;;;;;;2.08;1.10;;;10.60;39.50;;;;;;5013667;28;20475;-71
2022/11/21 10:21:59;;;;;;;2.03;1.10;;;10.20;39.10;;;;;;5008324;28;20204;-71
2022/11/21 10:24:46;;;;;;;2.15;1.20;;;10.30;39.30;;;;;;5019531;28;20181;-71
2022/11/21 10:27:22;;;;;;;2.15;1.10;;;10.80;38.00;;;;;;5014618;28;20162;-70
2022/11/21 10:30:15;;;;;;;2.20;1.10;;;11.10;37.10;;;;;;5012454;28;20278;-70
2022/11/21 10:32:46;;;;;;;2.20;1.10;;;10.70;38.70;;;;;;5007662;28;20425;-71
2022/11/21 10:35:18;;;;;;;2.27;1.10;;;11.20;38.00;;;;;;5013533;28;20274;-71
2022/11/21 10:37:56;;;;;;;2.30;1.10;;;11.40;35.00;;;;;;5014298;28;20440;-70
2022/11/21 10:40:25;;;;;;;2.70;1.30;;;11.20;36.00;;;;;;5013143;28;20217;-70
2022/11/21 10:46:08;;;;;;;2.30;1.13;;;10.70;37.10;;;;;;5005751;28;20219;-71
2022/11/21 10:48:34;;;;;;;2.37;1.17;;;10.30;36.90;;;;;;5013676;28;20205;-71
2022/11/21 10:51:11;;;;;;;2.43;1.10;;;10.10;38.20;;;;;;5006225;28;20443;-72
2022/11/21 10:56:25;;;;;;;2.50;1.20;;;11.30;35.90;;;;;;5014016;28;20517;-71
2022/11/21 10:58:53;;;;;;;2.60;1.30;;;11.20;35.10;;;;;;5013501;28;20424;-73
2022/11/21 11:01:26;;;;;;;3.57;1.30;;;11.00;34.90;;;;;;5010985;28;20451;-72
2022/11/21 11:04:11;;;;;;;2.60;1.10;;;11.30;33.60;;;;;;5008974;28;20433;-72
2022/11/21 11:06:41;;;;;;;2.90;1.20;;;11.50;33.70;;;;;;5017010;28;20516;-72
2022/11/21 11:09:22;;;;;;;2.60;1.10;;;11.90;32.10;;;;;;5014413;28;20456;-72
2022/11/21 11:11:47;;;;;;;2.73;1.27;;;11.50;34.70;;;;;;5011431;28;20455;-71
2022/11/21 11:14:14;;;;;;;2.57;1.07;;;11.10;34.70;;;;;;5012296;28;20952;-71
2022/11/21 11:16:45;;;;;;;2.77;1.20;;;10.70;35.30;;;;;;5013396;28;20197;-71
2022/11/21 11:19:14;;;;;;;2.63;1.10;;;11.00;34.30;;;;;;5011137;28;20456;-71
2022/11/21 11:21:40;;;;;;;2.90;1.30;;;11.60;33.80;;;;;;5010470;28;20432;-71
2022/11/21 11:24:08;;;;;;;2.67;1.10;;;11.40;33.60;;;;;;5003473;28;20460;-71
2022/11/21 11:26:54;;;;;;;2.67;1.20;;;11.60;33.80;;;;;;5011611;28;20181;-71
2022/11/21 11:29:22;;;;;;;2.60;1.10;;;11.70;33.90;;;;;;5010068;28;20474;-71
2022/11/21 11:32:14;;;;;;;2.67;1.10;;;11.80;32.00;;;;;;5014696;28;20518;-70
2022/11/21 11:34:54;;;;;;;4.10;1.83;;;11.30;33.80;;;;;;5000026;28;20444;-71
2022/11/21 11:37:27;;;;;;;2.67;1.10;;;11.30;33.60;;;;;;5003797;28;20478;-70
2022/11/21 11:40:18;;;;;;;2.77;1.27;;;11.10;35.20;;;;;;5012546;28;20495;-70
2022/11/21 11:48:56;;;;;;;2.70;1.20;;;11.00;36.20;;;;;;5005066;28;20471;-71
2022/11/21 11:51:35;;;;;;;2.77;1.23;;;10.80;35.60;;;;;;5014791;28;20439;-71
2022/11/21 11:54:26;;;;;;;2.70;1.20;;;11.20;35.40;;;;;;5004075;28;20432;-71
2022/11/21 11:56:53;;;;;;;2.70;1.20;;;12.20;31.20;;;;;;5003349;28;20472;-73
2022/11/21 11:59:31;;;;;;;2.80;1.20;;;12.10;32.20;;;;;;5009417;28;20427;-71
2022/11/21 12:02:01;;;;;;;2.97;1.30;;;12.60;30.50;;;;;;5009316;28;20490;-71
2022/11/21 12:04:32;;;;;;;3.00;1.20;;;12.80;30.00;;;;;;5012196;28;20821;-72
2022/11/21 12:07:05;;;;;;;3.00;1.30;;;13.90;28.70;;;;;;5012002;28;20440;-71
2022/11/21 12:09:55;;;;;;;3.00;1.27;;;13.80;29.30;;;;;;5006314;28;20869;-71
2022/11/21 12:12:47;;;;;;;2.90;1.10;;;12.80;28.90;;;;;;5006777;28;20440;-71
2022/11/21 12:18:19;;;;;;;2.90;1.10;;;12.40;29.90;;;;;;5011279;28;20998;-72
2022/11/21 12:20:57;;;;;;;3.00;1.10;;;11.60;30.00;;;;;;5011767;28;20467;-71
2022/11/21 12:23:27;;;;;;;3.00;1.20;;;11.50;30.70;;;;;;5009577;28;20443;-71
2022/11/21 12:26:30;;;;;;;3.60;1.40;;;12.20;29.20;;;;;;5012178;28;20416;-71
2022/11/21 12:29:22;;;;;;;3.00;1.20;;;12.60;28.60;;;;;;5012085;28;20432;-71
2022/11/21 12:32:03;;;;;;;3.00;1.17;;;13.20;28.00;;;;;;5003030;28;20432;-71
2022/11/21 12:35:06;;;;;;;3.00;1.20;;;13.40;27.60;;;;;;5006952;28;20436;-71
2022/11/21 12:37:52;;;;;;;3.00;1.20;;;14.30;26.70;;;;;;5006997;28;20529;-70
2022/11/21 12:40:36;;;;;;;3.10;1.20;;;13.50;27.70;;;;;;5010994;28;20543;-70
2022/11/21 12:43:11;;;;;;;3.00;1.20;;;13.90;27.00;;;;;;5012207;28;20431;-71
2022/11/21 12:46:01;;;;;;;3.07;1.20;;;14.10;26.50;;;;;;5011656;28;20785;-69
2022/11/21 12:54:30;;;;;;;3.47;1.40;;;13.90;27.70;;;;;;5011286;28;20456;-71
2022/11/21 12:57:13;;;;;;;3.17;1.30;;;13.70;27.30;;;;;;5004784;28;20472;-70
2022/11/21 13:00:07;;;;;;;3.00;1.20;;;13.80;29.70;;;;;;5011197;28;20467;-71
2022/11/21 13:02:51;;;;;;;3.00;1.20;;;13.60;28.00;;;;;;5003694;28;20444;-71
2022/11/21 13:05:27;;;;;;;3.10;1.33;;;13.90;28.20;;;;;;5000061;28;20418;-73
2022/11/21 13:08:18;;;;;;;3.50;1.50;;;13.60;27.60;;;;;;5008883;28;20447;-71
2022/11/21 13:14:23;;;;;;;3.00;1.13;;;13.70;26.10;;;;;;5005143;28;20482;-72
2022/11/21 13:17:06;;;;;;;3.40;1.57;;;13.60;26.90;;;;;;5010796;28;20504;-72
2022/11/21 13:19:40;;;;;;;3.10;1.30;;;13.40;26.50;;;;;;5007855;28;20451;-72
2022/11/21 13:22:35;;;;;;;3.10;1.30;;;13.50;27.40;;;;;;5007589;28;20436;-70
2022/11/21 13:25:09;;;;;;;3.00;1.10;;;13.90;26.30;;;;;;5001590;28;20444;-71
2022/11/21 13:27:41;;;;;;;3.10;1.30;;;14.00;26.80;;;;;;5003432;28;20439;-71
2022/11/21 13:30:10;;;;;;;3.00;1.20;;;13.50;26.40;;;;;;5005972;28;20530;-70
2022/11/21 13:32:48;;;;;;;3.00;1.20;;;14.20;26.40;;;;;;5009681;28;20438;-71
2022/11/21 13:35:13;;;;;;;3.07;1.20;;;15.10;26.80;;;;;;5014524;28;20429;-71
2022/11/21 13:37:48;;;;;;;4.27;2.33;;;15.50;24.30;;;;;;5009389;28;20457;-71
2022/11/21 13:40:26;;;;;;;2.90;1.10;;;14.60;25.50;;;;;;5014839;28;20218;-71